sensor_id;sensor_type;location;lat;lon;timestamp;temperature;humidity
56172;DHT22;42052;41.634;-0.946;2023-12-20T00:01:35;20.30;38.40
56172;DHT22;42052;41.634;-0.946;2023-12-20T00:04:02;20.30;38.50
56172;DHT22;42052;41.634;-0.946;2023-12-20T00:06:29;20.30;38.60
56172;DHT22;42052;41.634;-0.946;2023-12-20T00:08:55;20.30;38.80
56172;DHT22;42052;41.634;-0.946;2023-12-20T00:11:21;20.30;38.50
56172;DHT22;42052;41.634;-0.946;2023-12-20T00:13:47;20.30;38.60
56172;DHT22;42052;41.634;-0.946;2023-12-20T00:16:12;20.30;38.60
56172;DHT22;42052;41.634;-0.946;2023-12-20T00:18:38;20.20;38.60
56172;DHT22;42052;41.634;-0.946;2023-12-20T00:21:04;20.20;38.60
56172;DHT22;42052;41.634;-0.946;2023-12-20T00:23:30;20.20;38.60
56172;DHT22;42052;41.634;-0.946;2023-12-20T00:25:55;20.20;38.60
56172;DHT22;42052;41.634;-0.946;2023-12-20T00:28:22;20.20;38.70
56172;DHT22;42052;41.634;-0.946;2023-12-20T00:30:48;20.20;38.60
56172;DHT22;42052;41.634;-0.946;2023-12-20T00:33:14;20.20;38.80
56172;DHT22;42052;41.634;-0.946;2023-12-20T00:35:40;20.20;38.80
56172;DHT22;42052;41.634;-0.946;2023-12-20T00:38:05;20.20;38.70
56172;DHT22;42052;41.634;-0.946;2023-12-20T00:40:32;20.20;38.90
56172;DHT22;42052;41.634;-0.946;2023-12-20T00:42:58;20.20;38.80
56172;DHT22;42052;41.634;-0.946;2023-12-20T00:45:24;20.20;39.00
56172;DHT22;42052;41.634;-0.946;2023-12-20T00:47:50;20.10;38.90
56172;DHT22;42052;41.634;-0.946;2023-12-20T00:50:16;20.20;38.80
56172;DHT22;42052;41.634;-0.946;2023-12-20T00:52:42;20.10;38.80
56172;DHT22;42052;41.634;-0.946;2023-12-20T00:55:07;20.20;38.90
56172;DHT22;42052;41.634;-0.946;2023-12-20T00:57:33;20.10;38.80
56172;DHT22;42052;41.634;-0.946;2023-12-20T00:59:59;20.10;39.00
56172;DHT22;42052;41.634;-0.946;2023-12-20T01:02:25;20.10;39.00
56172;DHT22;42052;41.634;-0.946;2023-12-20T01:04:51;20.10;38.90
56172;DHT22;42052;41.634;-0.946;2023-12-20T01:07:17;20.10;39.00
56172;DHT22;42052;41.634;-0.946;2023-12-20T01:09:43;20.10;39.00
56172;DHT22;42052;41.634;-0.946;2023-12-20T01:12:08;20.10;39.00
56172;DHT22;42052;41.634;-0.946;2023-12-20T01:14:34;20.10;39.00
56172;DHT22;42052;41.634;-0.946;2023-12-20T01:17:01;20.10;39.10
56172;DHT22;42052;41.634;-0.946;2023-12-20T01:19:27;20.10;39.10
56172;DHT22;42052;41.634;-0.946;2023-12-20T01:21:53;20.10;39.10
56172;DHT22;42052;41.634;-0.946;2023-12-20T01:24:19;20.10;39.00
56172;DHT22;42052;41.634;-0.946;2023-12-20T01:26:45;20.10;39.00
56172;DHT22;42052;41.634;-0.946;2023-12-20T01:29:11;20.10;39.10
56172;DHT22;42052;41.634;-0.946;2023-12-20T01:31:37;20.00;39.10
56172;DHT22;42052;41.634;-0.946;2023-12-20T01:34:03;20.10;39.10
56172;DHT22;42052;41.634;-0.946;2023-12-20T01:36:29;20.10;39.00
56172;DHT22;42052;41.634;-0.946;2023-12-20T01:38:54;20.00;39.10
56172;DHT22;42052;41.634;-0.946;2023-12-20T01:41:20;20.00;39.10
56172;DHT22;42052;41.634;-0.946;2023-12-20T01:43:46;20.00;39.20
56172;DHT22;42052;41.634;-0.946;2023-12-20T01:46:12;20.00;39.20
56172;DHT22;42052;41.634;-0.946;2023-12-20T01:48:38;20.00;39.20
56172;DHT22;42052;41.634;-0.946;2023-12-20T01:51:04;20.00;39.20
56172;DHT22;42052;41.634;-0.946;2023-12-20T01:53:30;20.00;39.30
56172;DHT22;42052;41.634;-0.946;2023-12-20T01:55:58;20.00;39.30
56172;DHT22;42052;41.634;-0.946;2023-12-20T01:58:25;20.00;39.30
56172;DHT22;42052;41.634;-0.946;2023-12-20T02:00:51;20.00;39.40
56172;DHT22;42052;41.634;-0.946;2023-12-20T02:03:18;20.00;39.40
56172;DHT22;42052;41.634;-0.946;2023-12-20T02:05:44;20.00;39.50
56172;DHT22;42052;41.634;-0.946;2023-12-20T02:08:11;20.00;39.50
56172;DHT22;42052;41.634;-0.946;2023-12-20T02:10:37;20.00;39.60
56172;DHT22;42052;41.634;-0.946;2023-12-20T02:13:04;20.00;39.60
56172;DHT22;42052;41.634;-0.946;2023-12-20T02:15:30;20.00;39.60
56172;DHT22;42052;41.634;-0.946;2023-12-20T02:17:56;20.00;39.60
56172;DHT22;42052;41.634;-0.946;2023-12-20T02:20:22;20.00;39.60
56172;DHT22;42052;41.634;-0.946;2023-12-20T02:22:47;20.00;39.70
56172;DHT22;42052;41.634;-0.946;2023-12-20T02:25:13;19.90;39.60
56172;DHT22;42052;41.634;-0.946;2023-12-20T02:27:40;19.90;39.60
56172;DHT22;42052;41.634;-0.946;2023-12-20T02:30:06;20.00;39.70
56172;DHT22;42052;41.634;-0.946;2023-12-20T02:32:32;20.00;40.10
56172;DHT22;42052;41.634;-0.946;2023-12-20T02:34:58;20.00;40.20
56172;DHT22;42052;41.634;-0.946;2023-12-20T02:37:24;20.00;40.30
56172;DHT22;42052;41.634;-0.946;2023-12-20T02:39:49;20.00;40.30
56172;DHT22;42052;41.634;-0.946;2023-12-20T02:42:15;20.00;40.30
56172;DHT22;42052;41.634;-0.946;2023-12-20T02:44:41;20.00;40.30
56172;DHT22;42052;41.634;-0.946;2023-12-20T02:47:07;20.10;40.40
56172;DHT22;42052;41.634;-0.946;2023-12-20T02:49:33;20.00;40.30
56172;DHT22;42052;41.634;-0.946;2023-12-20T02:51:58;20.00;40.30
56172;DHT22;42052;41.634;-0.946;2023-12-20T02:54:24;20.10;40.50
56172;DHT22;42052;41.634;-0.946;2023-12-20T02:56:50;20.10;40.50
56172;DHT22;42052;41.634;-0.946;2023-12-20T02:59:16;20.10;40.60
56172;DHT22;42052;41.634;-0.946;2023-12-20T03:01:44;20.10;40.60
56172;DHT22;42052;41.634;-0.946;2023-12-20T03:04:10;20.10;40.50
56172;DHT22;42052;41.634;-0.946;2023-12-20T03:06:36;20.10;40.40
56172;DHT22;42052;41.634;-0.946;2023-12-20T03:09:02;20.10;40.40
56172;DHT22;42052;41.634;-0.946;2023-12-20T03:11:28;20.10;40.60
56172;DHT22;42052;41.634;-0.946;2023-12-20T03:13:54;20.10;40.50
56172;DHT22;42052;41.634;-0.946;2023-12-20T03:16:20;20.10;40.70
56172;DHT22;42052;41.634;-0.946;2023-12-20T03:18:46;20.20;40.70
56172;DHT22;42052;41.634;-0.946;2023-12-20T03:21:12;20.10;40.80
56172;DHT22;42052;41.634;-0.946;2023-12-20T03:23:37;20.10;40.70
56172;DHT22;42052;41.634;-0.946;2023-12-20T03:26:05;20.10;40.60
56172;DHT22;42052;41.634;-0.946;2023-12-20T03:28:32;20.10;40.60
56172;DHT22;42052;41.634;-0.946;2023-12-20T03:30:57;20.20;40.60
56172;DHT22;42052;41.634;-0.946;2023-12-20T03:33:23;20.20;40.60
56172;DHT22;42052;41.634;-0.946;2023-12-20T03:35:49;20.20;40.70
56172;DHT22;42052;41.634;-0.946;2023-12-20T03:38:15;20.20;40.70
56172;DHT22;42052;41.634;-0.946;2023-12-20T03:40:40;20.20;40.70
56172;DHT22;42052;41.634;-0.946;2023-12-20T03:43:06;20.20;40.80
56172;DHT22;42052;41.634;-0.946;2023-12-20T03:45:33;20.20;40.80
56172;DHT22;42052;41.634;-0.946;2023-12-20T03:47:59;20.20;40.80
56172;DHT22;42052;41.634;-0.946;2023-12-20T03:50:25;20.20;40.80
56172;DHT22;42052;41.634;-0.946;2023-12-20T03:52:51;20.20;40.70
56172;DHT22;42052;41.634;-0.946;2023-12-20T03:55:18;20.20;40.70
56172;DHT22;42052;41.634;-0.946;2023-12-20T03:57:43;20.20;40.70
56172;DHT22;42052;41.634;-0.946;2023-12-20T04:00:10;20.20;40.70
56172;DHT22;42052;41.634;-0.946;2023-12-20T04:02:42;20.20;40.70
56172;DHT22;42052;41.634;-0.946;2023-12-20T04:05:09;20.20;40.60
56172;DHT22;42052;41.634;-0.946;2023-12-20T04:07:36;20.30;40.70
56172;DHT22;42052;41.634;-0.946;2023-12-20T04:10:02;20.30;40.70
56172;DHT22;42052;41.634;-0.946;2023-12-20T04:12:29;20.30;40.70
56172;DHT22;42052;41.634;-0.946;2023-12-20T04:14:55;20.20;40.70
56172;DHT22;42052;41.634;-0.946;2023-12-20T04:17:21;20.30;40.70
56172;DHT22;42052;41.634;-0.946;2023-12-20T04:19:50;20.30;40.70
56172;DHT22;42052;41.634;-0.946;2023-12-20T04:22:17;20.30;40.70
56172;DHT22;42052;41.634;-0.946;2023-12-20T04:24:44;20.30;40.70
56172;DHT22;42052;41.634;-0.946;2023-12-20T04:27:09;20.20;40.80
56172;DHT22;42052;41.634;-0.946;2023-12-20T04:29:35;20.20;40.80
56172;DHT22;42052;41.634;-0.946;2023-12-20T04:32:01;20.30;40.90
56172;DHT22;42052;41.634;-0.946;2023-12-20T04:34:27;20.30;40.90
56172;DHT22;42052;41.634;-0.946;2023-12-20T04:36:53;20.30;40.90
56172;DHT22;42052;41.634;-0.946;2023-12-20T04:39:19;20.30;40.90
56172;DHT22;42052;41.634;-0.946;2023-12-20T04:41:45;20.30;40.90
56172;DHT22;42052;41.634;-0.946;2023-12-20T04:44:13;20.30;40.90
56172;DHT22;42052;41.634;-0.946;2023-12-20T04:46:39;20.30;40.90
56172;DHT22;42052;41.634;-0.946;2023-12-20T04:49:05;20.30;40.90
56172;DHT22;42052;41.634;-0.946;2023-12-20T04:51:33;20.30;40.80
56172;DHT22;42052;41.634;-0.946;2023-12-20T04:53:59;20.30;40.80
56172;DHT22;42052;41.634;-0.946;2023-12-20T04:56:25;20.30;40.90
56172;DHT22;42052;41.634;-0.946;2023-12-20T04:58:51;20.30;40.90
56172;DHT22;42052;41.634;-0.946;2023-12-20T05:01:16;20.30;40.80
56172;DHT22;42052;41.634;-0.946;2023-12-20T05:03:42;20.30;40.90
56172;DHT22;42052;41.634;-0.946;2023-12-20T05:06:09;20.30;40.90
56172;DHT22;42052;41.634;-0.946;2023-12-20T05:08:34;20.30;40.70
56172;DHT22;42052;41.634;-0.946;2023-12-20T05:11:00;20.30;40.80
56172;DHT22;42052;41.634;-0.946;2023-12-20T05:13:26;20.30;40.90
56172;DHT22;42052;41.634;-0.946;2023-12-20T05:15:52;20.30;41.00
56172;DHT22;42052;41.634;-0.946;2023-12-20T05:18:17;20.30;41.00
56172;DHT22;42052;41.634;-0.946;2023-12-20T05:20:43;20.30;41.10
56172;DHT22;42052;41.634;-0.946;2023-12-20T05:23:09;20.30;41.10
56172;DHT22;42052;41.634;-0.946;2023-12-20T05:25:35;20.30;41.10
56172;DHT22;42052;41.634;-0.946;2023-12-20T05:28:01;20.30;41.00
56172;DHT22;42052;41.634;-0.946;2023-12-20T05:30:26;20.30;41.10
56172;DHT22;42052;41.634;-0.946;2023-12-20T05:32:52;20.30;41.00
56172;DHT22;42052;41.634;-0.946;2023-12-20T05:35:18;20.30;41.00
56172;DHT22;42052;41.634;-0.946;2023-12-20T05:37:44;20.30;41.00
56172;DHT22;42052;41.634;-0.946;2023-12-20T05:40:11;20.30;41.10
56172;DHT22;42052;41.634;-0.946;2023-12-20T05:42:37;20.30;41.00
56172;DHT22;42052;41.634;-0.946;2023-12-20T05:45:06;20.40;41.00
56172;DHT22;42052;41.634;-0.946;2023-12-20T05:47:31;20.40;41.00
56172;DHT22;42052;41.634;-0.946;2023-12-20T05:49:57;20.40;41.00
56172;DHT22;42052;41.634;-0.946;2023-12-20T05:52:24;20.40;41.00
56172;DHT22;42052;41.634;-0.946;2023-12-20T05:54:50;20.40;41.00
56172;DHT22;42052;41.634;-0.946;2023-12-20T05:57:15;20.40;41.00
56172;DHT22;42052;41.634;-0.946;2023-12-20T05:59:41;20.40;41.00
56172;DHT22;42052;41.634;-0.946;2023-12-20T06:02:07;20.40;41.00
56172;DHT22;42052;41.634;-0.946;2023-12-20T06:04:33;20.40;41.00
56172;DHT22;42052;41.634;-0.946;2023-12-20T06:06:59;20.40;41.20
56172;DHT22;42052;41.634;-0.946;2023-12-20T06:09:28;20.40;41.20
56172;DHT22;42052;41.634;-0.946;2023-12-20T06:11:54;20.40;41.20
56172;DHT22;42052;41.634;-0.946;2023-12-20T06:14:20;20.40;41.20
56172;DHT22;42052;41.634;-0.946;2023-12-20T06:16:46;20.40;41.20
56172;DHT22;42052;41.634;-0.946;2023-12-20T06:19:11;20.40;41.20
56172;DHT22;42052;41.634;-0.946;2023-12-20T06:21:37;20.40;41.00
56172;DHT22;42052;41.634;-0.946;2023-12-20T06:24:03;20.40;41.00
56172;DHT22;42052;41.634;-0.946;2023-12-20T06:26:29;20.40;41.00
56172;DHT22;42052;41.634;-0.946;2023-12-20T06:28:55;20.40;41.00
56172;DHT22;42052;41.634;-0.946;2023-12-20T06:31:21;20.40;41.00
56172;DHT22;42052;41.634;-0.946;2023-12-20T06:33:46;20.40;41.00
56172;DHT22;42052;41.634;-0.946;2023-12-20T06:36:13;20.40;41.00
56172;DHT22;42052;41.634;-0.946;2023-12-20T06:38:40;20.40;41.00
56172;DHT22;42052;41.634;-0.946;2023-12-20T06:41:05;20.40;41.00
56172;DHT22;42052;41.634;-0.946;2023-12-20T06:43:31;20.40;41.00
56172;DHT22;42052;41.634;-0.946;2023-12-20T06:46:00;20.40;41.10
56172;DHT22;42052;41.634;-0.946;2023-12-20T06:48:26;20.40;41.30
56172;DHT22;42052;41.634;-0.946;2023-12-20T06:50:52;20.40;41.30
56172;DHT22;42052;41.634;-0.946;2023-12-20T06:53:18;20.50;41.30
56172;DHT22;42052;41.634;-0.946;2023-12-20T06:55:43;20.40;41.30
56172;DHT22;42052;41.634;-0.946;2023-12-20T06:58:09;20.40;41.30
56172;DHT22;42052;41.634;-0.946;2023-12-20T07:00:35;20.50;41.20
56172;DHT22;42052;41.634;-0.946;2023-12-20T07:03:01;20.50;41.20
56172;DHT22;42052;41.634;-0.946;2023-12-20T07:05:27;20.50;42.00
56172;DHT22;42052;41.634;-0.946;2023-12-20T07:07:52;20.50;41.10
56172;DHT22;42052;41.634;-0.946;2023-12-20T07:10:19;20.50;41.00
56172;DHT22;42052;41.634;-0.946;2023-12-20T07:12:45;20.50;41.00
56172;DHT22;42052;41.634;-0.946;2023-12-20T07:15:11;20.50;41.00
56172;DHT22;42052;41.634;-0.946;2023-12-20T07:17:37;20.50;41.00
56172;DHT22;42052;41.634;-0.946;2023-12-20T07:20:03;20.50;41.00
56172;DHT22;42052;41.634;-0.946;2023-12-20T07:22:33;20.50;41.00
56172;DHT22;42052;41.634;-0.946;2023-12-20T07:24:59;20.50;41.10
56172;DHT22;42052;41.634;-0.946;2023-12-20T07:27:25;20.50;41.00
56172;DHT22;42052;41.634;-0.946;2023-12-20T07:29:51;20.50;41.00
56172;DHT22;42052;41.634;-0.946;2023-12-20T07:32:17;20.50;41.00
56172;DHT22;42052;41.634;-0.946;2023-12-20T07:34:43;20.40;41.00
56172;DHT22;42052;41.634;-0.946;2023-12-20T07:37:09;20.40;41.00
56172;DHT22;42052;41.634;-0.946;2023-12-20T07:39:38;20.40;41.00
56172;DHT22;42052;41.634;-0.946;2023-12-20T07:42:05;20.40;41.00
56172;DHT22;42052;41.634;-0.946;2023-12-20T07:44:31;20.40;41.00
56172;DHT22;42052;41.634;-0.946;2023-12-20T07:46:57;20.40;41.00
56172;DHT22;42052;41.634;-0.946;2023-12-20T07:49:23;20.40;41.10
56172;DHT22;42052;41.634;-0.946;2023-12-20T07:51:49;20.40;41.00
56172;DHT22;42052;41.634;-0.946;2023-12-20T07:54:15;20.40;41.10
56172;DHT22;42052;41.634;-0.946;2023-12-20T07:56:41;20.40;41.10
56172;DHT22;42052;41.634;-0.946;2023-12-20T07:59:07;20.40;41.10
56172;DHT22;42052;41.634;-0.946;2023-12-20T08:01:33;20.40;41.10
56172;DHT22;42052;41.634;-0.946;2023-12-20T08:03:59;20.40;41.10
56172;DHT22;42052;41.634;-0.946;2023-12-20T08:06:25;20.40;41.10
56172;DHT22;42052;41.634;-0.946;2023-12-20T08:08:51;20.40;41.20
56172;DHT22;42052;41.634;-0.946;2023-12-20T08:11:17;20.30;41.20
56172;DHT22;42052;41.634;-0.946;2023-12-20T08:13:43;20.40;41.30
56172;DHT22;42052;41.634;-0.946;2023-12-20T08:16:08;20.40;41.30
56172;DHT22;42052;41.634;-0.946;2023-12-20T08:18:34;20.30;41.20
56172;DHT22;42052;41.634;-0.946;2023-12-20T08:21:00;20.30;41.20
56172;DHT22;42052;41.634;-0.946;2023-12-20T08:23:27;20.30;41.20
56172;DHT22;42052;41.634;-0.946;2023-12-20T08:25:53;20.30;41.20
56172;DHT22;42052;41.634;-0.946;2023-12-20T08:28:18;20.30;41.20
56172;DHT22;42052;41.634;-0.946;2023-12-20T08:30:44;20.30;41.30
56172;DHT22;42052;41.634;-0.946;2023-12-20T08:33:10;20.30;41.30
56172;DHT22;42052;41.634;-0.946;2023-12-20T08:35:39;20.30;41.30
56172;DHT22;42052;41.634;-0.946;2023-12-20T08:38:06;20.30;41.40
56172;DHT22;42052;41.634;-0.946;2023-12-20T08:40:32;20.30;41.40
56172;DHT22;42052;41.634;-0.946;2023-12-20T08:42:57;20.30;41.40
56172;DHT22;42052;41.634;-0.946;2023-12-20T08:45:23;20.30;41.40
56172;DHT22;42052;41.634;-0.946;2023-12-20T08:47:50;20.30;41.40
56172;DHT22;42052;41.634;-0.946;2023-12-20T08:50:16;20.30;41.50
56172;DHT22;42052;41.634;-0.946;2023-12-20T08:52:41;20.20;41.40
56172;DHT22;42052;41.634;-0.946;2023-12-20T08:55:08;20.30;41.50
56172;DHT22;42052;41.634;-0.946;2023-12-20T08:57:35;20.20;41.40
56172;DHT22;42052;41.634;-0.946;2023-12-20T09:00:02;20.20;41.40
56172;DHT22;42052;41.634;-0.946;2023-12-20T09:02:28;20.20;41.50
56172;DHT22;42052;41.634;-0.946;2023-12-20T09:04:54;20.20;41.50
56172;DHT22;42052;41.634;-0.946;2023-12-20T09:07:24;20.20;41.50
56172;DHT22;42052;41.634;-0.946;2023-12-20T09:09:51;20.20;41.50
56172;DHT22;42052;41.634;-0.946;2023-12-20T09:12:18;20.20;41.50
56172;DHT22;42052;41.634;-0.946;2023-12-20T09:14:48;20.20;41.50
56172;DHT22;42052;41.634;-0.946;2023-12-20T09:17:15;20.20;41.50
56172;DHT22;42052;41.634;-0.946;2023-12-20T09:19:42;20.20;41.50
56172;DHT22;42052;41.634;-0.946;2023-12-20T09:22:09;20.20;41.50
56172;DHT22;42052;41.634;-0.946;2023-12-20T09:24:35;20.20;41.50
56172;DHT22;42052;41.634;-0.946;2023-12-20T09:27:01;20.20;41.50
56172;DHT22;42052;41.634;-0.946;2023-12-20T09:29:27;20.20;41.50
56172;DHT22;42052;41.634;-0.946;2023-12-20T09:31:52;20.20;41.50
56172;DHT22;42052;41.634;-0.946;2023-12-20T09:34:18;20.20;41.60
56172;DHT22;42052;41.634;-0.946;2023-12-20T09:36:44;20.20;41.60
56172;DHT22;42052;41.634;-0.946;2023-12-20T09:39:17;20.10;41.60
56172;DHT22;42052;41.634;-0.946;2023-12-20T09:42:02;20.10;41.60
56172;DHT22;42052;41.634;-0.946;2023-12-20T09:44:29;20.10;41.70
56172;DHT22;42052;41.634;-0.946;2023-12-20T09:46:55;20.10;41.60
56172;DHT22;42052;41.634;-0.946;2023-12-20T09:49:22;20.10;41.70
56172;DHT22;42052;41.634;-0.946;2023-12-20T09:51:50;20.10;41.70
56172;DHT22;42052;41.634;-0.946;2023-12-20T09:54:21;20.10;41.70
56172;DHT22;42052;41.634;-0.946;2023-12-20T09:56:47;20.10;41.70
56172;DHT22;42052;41.634;-0.946;2023-12-20T09:59:13;20.10;41.70
56172;DHT22;42052;41.634;-0.946;2023-12-20T10:01:40;20.10;41.70
56172;DHT22;42052;41.634;-0.946;2023-12-20T10:04:08;20.10;41.70
56172;DHT22;42052;41.634;-0.946;2023-12-20T10:06:39;20.10;41.70
56172;DHT22;42052;41.634;-0.946;2023-12-20T10:09:05;20.10;41.70
56172;DHT22;42052;41.634;-0.946;2023-12-20T10:11:31;20.10;41.70
56172;DHT22;42052;41.634;-0.946;2023-12-20T10:14:00;20.20;41.70
56172;DHT22;42052;41.634;-0.946;2023-12-20T10:16:27;20.10;41.60
56172;DHT22;42052;41.634;-0.946;2023-12-20T10:18:56;20.10;41.60
56172;DHT22;42052;41.634;-0.946;2023-12-20T10:21:23;20.10;41.70
56172;DHT22;42052;41.634;-0.946;2023-12-20T10:23:50;20.10;41.60
56172;DHT22;42052;41.634;-0.946;2023-12-20T10:26:23;20.20;41.70
56172;DHT22;42052;41.634;-0.946;2023-12-20T10:28:59;20.20;41.70
56172;DHT22;42052;41.634;-0.946;2023-12-20T10:31:32;20.20;41.60
56172;DHT22;42052;41.634;-0.946;2023-12-20T10:33:59;20.10;41.60
56172;DHT22;42052;41.634;-0.946;2023-12-20T10:36:30;20.20;41.60
56172;DHT22;42052;41.634;-0.946;2023-12-20T10:38:57;20.20;41.60
56172;DHT22;42052;41.634;-0.946;2023-12-20T10:41:28;20.20;41.70
56172;DHT22;42052;41.634;-0.946;2023-12-20T10:44:00;20.20;41.70
56172;DHT22;42052;41.634;-0.946;2023-12-20T10:46:27;20.20;41.80
56172;DHT22;42052;41.634;-0.946;2023-12-20T10:48:54;20.20;41.70
56172;DHT22;42052;41.634;-0.946;2023-12-20T10:51:21;20.20;41.70
56172;DHT22;42052;41.634;-0.946;2023-12-20T10:53:48;20.20;41.70
56172;DHT22;42052;41.634;-0.946;2023-12-20T10:56:17;20.20;41.70
56172;DHT22;42052;41.634;-0.946;2023-12-20T10:58:50;20.20;41.70
56172;DHT22;42052;41.634;-0.946;2023-12-20T11:01:17;20.20;41.80
56172;DHT22;42052;41.634;-0.946;2023-12-20T11:03:53;20.20;41.70
56172;DHT22;42052;41.634;-0.946;2023-12-20T11:09:14;20.20;41.70
56172;DHT22;42052;41.634;-0.946;2023-12-20T11:12:02;20.20;41.70
56172;DHT22;42052;41.634;-0.946;2023-12-20T11:14:52;20.20;41.70
56172;DHT22;42052;41.634;-0.946;2023-12-20T11:17:19;20.20;41.70
56172;DHT22;42052;41.634;-0.946;2023-12-20T11:22:29;20.20;41.60
56172;DHT22;42052;41.634;-0.946;2023-12-20T11:25:08;20.20;41.70
56172;DHT22;42052;41.634;-0.946;2023-12-20T11:27:35;20.20;41.70
56172;DHT22;42052;41.634;-0.946;2023-12-20T11:30:05;20.20;41.60
56172;DHT22;42052;41.634;-0.946;2023-12-20T11:32:36;20.20;41.70
56172;DHT22;42052;41.634;-0.946;2023-12-20T11:37:38;20.20;41.70
56172;DHT22;42052;41.634;-0.946;2023-12-20T11:40:12;20.20;41.60
56172;DHT22;42052;41.634;-0.946;2023-12-20T11:42:42;20.20;41.70
56172;DHT22;42052;41.634;-0.946;2023-12-20T11:45:09;20.20;41.70
56172;DHT22;42052;41.634;-0.946;2023-12-20T11:47:36;20.20;41.70
56172;DHT22;42052;41.634;-0.946;2023-12-20T11:50:02;20.20;41.60
56172;DHT22;42052;41.634;-0.946;2023-12-20T11:52:29;20.20;41.70
56172;DHT22;42052;41.634;-0.946;2023-12-20T11:54:56;20.20;41.60
56172;DHT22;42052;41.634;-0.946;2023-12-20T11:57:22;20.20;41.60
56172;DHT22;42052;41.634;-0.946;2023-12-20T11:59:48;20.10;41.60
56172;DHT22;42052;41.634;-0.946;2023-12-20T12:02:14;20.20;41.50
56172;DHT22;42052;41.634;-0.946;2023-12-20T12:04:43;20.20;41.50
56172;DHT22;42052;41.634;-0.946;2023-12-20T12:07:09;20.10;41.50
56172;DHT22;42052;41.634;-0.946;2023-12-20T12:09:35;20.10;41.40
56172;DHT22;42052;41.634;-0.946;2023-12-20T12:12:01;20.20;41.50
56172;DHT22;42052;41.634;-0.946;2023-12-20T12:14:27;20.20;41.40
56172;DHT22;42052;41.634;-0.946;2023-12-20T12:16:53;20.10;41.30
56172;DHT22;42052;41.634;-0.946;2023-12-20T12:19:23;20.20;41.40
56172;DHT22;42052;41.634;-0.946;2023-12-20T12:21:50;20.10;41.30
56172;DHT22;42052;41.634;-0.946;2023-12-20T12:24:20;20.10;41.20
56172;DHT22;42052;41.634;-0.946;2023-12-20T12:26:51;20.10;41.20
56172;DHT22;42052;41.634;-0.946;2023-12-20T12:29:18;20.20;41.30
56172;DHT22;42052;41.634;-0.946;2023-12-20T12:31:43;20.10;41.30
56172;DHT22;42052;41.634;-0.946;2023-12-20T12:34:09;20.20;41.50
56172;DHT22;42052;41.634;-0.946;2023-12-20T12:36:35;20.10;41.50
56172;DHT22;42052;41.634;-0.946;2023-12-20T12:39:04;20.10;41.50
56172;DHT22;42052;41.634;-0.946;2023-12-20T12:41:30;20.20;41.60
56172;DHT22;42052;41.634;-0.946;2023-12-20T12:43:56;20.10;41.50
56172;DHT22;42052;41.634;-0.946;2023-12-20T12:46:22;20.10;41.50
56172;DHT22;42052;41.634;-0.946;2023-12-20T12:48:48;20.10;41.40
56172;DHT22;42052;41.634;-0.946;2023-12-20T12:51:15;20.20;41.50
56172;DHT22;42052;41.634;-0.946;2023-12-20T12:53:41;20.10;41.40
56172;DHT22;42052;41.634;-0.946;2023-12-20T12:56:08;20.20;41.40
56172;DHT22;42052;41.634;-0.946;2023-12-20T12:58:34;20.20;41.30
56172;DHT22;42052;41.634;-0.946;2023-12-20T13:00:59;20.20;41.20
56172;DHT22;42052;41.634;-0.946;2023-12-20T13:03:25;20.20;41.10
56172;DHT22;42052;41.634;-0.946;2023-12-20T13:05:51;20.10;41.10
56172;DHT22;42052;41.634;-0.946;2023-12-20T13:08:17;20.20;41.00
56172;DHT22;42052;41.634;-0.946;2023-12-20T13:10:43;20.10;41.00
56172;DHT22;42052;41.634;-0.946;2023-12-20T13:13:09;20.20;41.00
56172;DHT22;42052;41.634;-0.946;2023-12-20T13:15:35;20.20;40.80
56172;DHT22;42052;41.634;-0.946;2023-12-20T13:18:00;20.10;40.90
56172;DHT22;42052;41.634;-0.946;2023-12-20T13:20:26;20.10;40.80
56172;DHT22;42052;41.634;-0.946;2023-12-20T13:22:52;20.20;40.80
56172;DHT22;42052;41.634;-0.946;2023-12-20T13:25:18;20.10;40.80
56172;DHT22;42052;41.634;-0.946;2023-12-20T13:27:43;20.20;40.80
56172;DHT22;42052;41.634;-0.946;2023-12-20T13:30:10;20.20;40.80
56172;DHT22;42052;41.634;-0.946;2023-12-20T13:32:35;20.20;40.80
56172;DHT22;42052;41.634;-0.946;2023-12-20T13:35:01;20.20;40.80
56172;DHT22;42052;41.634;-0.946;2023-12-20T13:37:27;20.20;40.80
56172;DHT22;42052;41.634;-0.946;2023-12-20T13:39:53;20.20;40.80
56172;DHT22;42052;41.634;-0.946;2023-12-20T13:42:19;20.20;40.80
56172;DHT22;42052;41.634;-0.946;2023-12-20T13:44:46;20.20;40.80
56172;DHT22;42052;41.634;-0.946;2023-12-20T13:47:12;20.20;40.80
56172;DHT22;42052;41.634;-0.946;2023-12-20T13:49:38;20.20;40.80
56172;DHT22;42052;41.634;-0.946;2023-12-20T13:52:04;20.20;40.70
56172;DHT22;42052;41.634;-0.946;2023-12-20T13:54:30;20.20;40.70
56172;DHT22;42052;41.634;-0.946;2023-12-20T13:56:56;20.20;41.50
56172;DHT22;42052;41.634;-0.946;2023-12-20T13:59:23;20.20;40.70
56172;DHT22;42052;41.634;-0.946;2023-12-20T14:01:49;20.20;40.60
56172;DHT22;42052;41.634;-0.946;2023-12-20T14:04:16;20.10;40.60
56172;DHT22;42052;41.634;-0.946;2023-12-20T14:06:41;20.20;40.60
56172;DHT22;42052;41.634;-0.946;2023-12-20T14:09:08;20.20;40.70
56172;DHT22;42052;41.634;-0.946;2023-12-20T14:11:34;20.20;40.60
56172;DHT22;42052;41.634;-0.946;2023-12-20T14:13:59;20.20;40.50
56172;DHT22;42052;41.634;-0.946;2023-12-20T14:16:27;20.20;40.60
56172;DHT22;42052;41.634;-0.946;2023-12-20T14:18:53;20.20;40.60
56172;DHT22;42052;41.634;-0.946;2023-12-20T14:21:22;20.20;40.60
56172;DHT22;42052;41.634;-0.946;2023-12-20T14:23:49;20.20;40.50
56172;DHT22;42052;41.634;-0.946;2023-12-20T14:26:15;20.20;40.60
56172;DHT22;42052;41.634;-0.946;2023-12-20T14:28:41;20.20;40.60
56172;DHT22;42052;41.634;-0.946;2023-12-20T14:31:07;20.20;40.50
56172;DHT22;42052;41.634;-0.946;2023-12-20T14:33:36;20.20;40.50
56172;DHT22;42052;41.634;-0.946;2023-12-20T14:36:07;20.20;40.50
56172;DHT22;42052;41.634;-0.946;2023-12-20T14:38:33;20.20;40.50
56172;DHT22;42052;41.634;-0.946;2023-12-20T14:40:58;20.20;40.50
56172;DHT22;42052;41.634;-0.946;2023-12-20T14:43:25;20.20;40.50
56172;DHT22;42052;41.634;-0.946;2023-12-20T14:45:52;20.20;40.50
56172;DHT22;42052;41.634;-0.946;2023-12-20T14:48:18;20.20;40.50
56172;DHT22;42052;41.634;-0.946;2023-12-20T14:50:44;20.20;40.50
56172;DHT22;42052;41.634;-0.946;2023-12-20T14:53:10;20.20;40.50
56172;DHT22;42052;41.634;-0.946;2023-12-20T14:55:36;20.20;40.40
56172;DHT22;42052;41.634;-0.946;2023-12-20T14:58:01;20.20;40.50
56172;DHT22;42052;41.634;-0.946;2023-12-20T15:00:27;20.20;40.50
56172;DHT22;42052;41.634;-0.946;2023-12-20T15:02:53;20.20;40.50
56172;DHT22;42052;41.634;-0.946;2023-12-20T15:05:20;20.20;40.50
56172;DHT22;42052;41.634;-0.946;2023-12-20T15:07:45;20.20;40.40
56172;DHT22;42052;41.634;-0.946;2023-12-20T15:10:13;20.20;40.50
56172;DHT22;42052;41.634;-0.946;2023-12-20T15:12:39;20.20;40.50
56172;DHT22;42052;41.634;-0.946;2023-12-20T15:15:06;20.20;40.50
56172;DHT22;42052;41.634;-0.946;2023-12-20T15:17:32;20.20;40.50
56172;DHT22;42052;41.634;-0.946;2023-12-20T15:19:58;20.20;40.50